Time;durP1;ratioP1;P1;durP2;ratioP2;P2;SDS_P1;SDS_P2;PMS_P1;PMS_P2;Temp;Humidity;BMP_temperature;BMP_pressure;BME280_temperature;BME280_humidity;BME280_pressure;Samples;Min_cycle;Max_cycle;Signal;HPM_P1;HPM_P2
2022/07/22 00:00:33;;;;;;;;;;;;;;;;;;5080681;28;20342;-77
2022/07/22 00:02:59;;;;;;;;;;;;;;;;;;5091079;28;20491;-75
2022/07/22 00:05:25;;;;;;;;;;;;;;;;;;5091323;28;19924;-76
2022/07/22 00:07:52;;;;;;;;;;;;;;;;;;5090953;28;19928;-75
2022/07/22 00:10:20;;;;;;;;;;;;;;;;;;5092558;28;20015;-76
2022/07/22 00:12:46;;;;;;;;;;;;;;;;;;5083116;28;19956;-76
2022/07/22 00:15:14;;;;;;;;;;;;;;;;;;5081975;28;20004;-76
2022/07/22 00:17:40;;;;;;;;;;;;;;;;;;5081754;28;20344;-76
2022/07/22 00:20:07;;;;;;;;;;;;;;;;;;5083556;28;19967;-77
2022/07/22 00:22:34;;;;;;;;;;;;;;;;;;5074899;28;20003;-76
2022/07/22 00:25:00;;;;;;;;;;;;;;;;;;5072807;28;19925;-75
2022/07/22 00:27:28;;;;;;;;;;;;;;;;;;5072294;28;19932;-74
2022/07/22 00:29:54;;;;;;;;;;;;;;;;;;5072909;28;20016;-76
2022/07/22 00:32:21;;;;;;;;;;;;;;;;;;5073069;28;20027;-77
2022/07/22 00:34:47;;;;;;;;;;;;;;;;;;5073824;28;19978;-77
2022/07/22 00:37:14;;;;;;;;;;;;;;;;;;5073633;28;19975;-77
2022/07/22 00:39:40;;;;;;;;;;;;;;;;;;5073372;28;20011;-77
2022/07/22 00:42:07;;;;;;;;;;;;;;;;;;5073387;28;19924;-77
2022/07/22 00:44:35;;;;;;;;;;;;;;;;;;5076506;28;19925;-76
2022/07/22 00:47:01;;;;;;;;;;;;;;;;;;5075810;28;20401;-77
2022/07/22 00:49:28;;;;;;;;;;;;;;;;;;5076251;28;20458;-77
2022/07/22 00:51:54;;;;;;;;;;;;;;;;;;5072625;28;19934;-76
2022/07/22 00:54:21;;;;;;;;;;;;;;;;;;5072739;28;19971;-77
2022/07/22 00:56:47;;;;;;;;;;;;;;;;;;5072172;28;20023;-77
2022/07/22 00:59:14;;;;;;;;;;;;;;;;;;5072725;28;19982;-76
2022/07/22 01:01:42;;;;;;;;;;;;;;;;;;5091833;28;20007;-76
2022/07/22 01:04:08;;;;;;;;;;;;;;;;;;5092748;28;19968;-77
2022/07/22 01:06:35;;;;;;;;;;;;;;;;;;5095087;28;19963;-77
2022/07/22 01:09:01;;;;;;;;;;;;;;;;;;5095776;28;19924;-76
2022/07/22 01:11:28;;;;;;;;;;;;;;;;;;5093800;28;20378;-77
2022/07/22 01:13:55;;;;;;;;;;;;;;;;;;5093159;28;19935;-77
2022/07/22 01:16:22;;;;;;;;;;;;;;;;;;5092966;28;20006;-77
2022/07/22 01:18:50;;;;;;;;;;;;;;;;;;5093907;28;19972;-77
2022/07/22 01:21:18;;;;;;;;;;;;;;;;;;5096334;28;19999;-77
2022/07/22 01:23:45;;;;;;;;;;;;;;;;;;5097591;28;20006;-77
2022/07/22 01:26:12;;;;;;;;;;;;;;;;;;5097166;28;19963;-76
2022/07/22 01:28:38;;;;;;;;;;;;;;;;;;5096982;28;19925;-77
2022/07/22 01:31:05;;;;;;;;;;;;;;;;;;5096296;28;20015;-77
2022/07/22 01:33:31;;;;;;;;;;;;;;;;;;5096545;28;19924;-77
2022/07/22 01:35:58;;;;;;;;;;;;;;;;;;5096310;28;19974;-76
2022/07/22 01:38:26;;;;;;;;;;;;;;;;;;5096743;28;20011;-77
2022/07/22 01:40:52;;;;;;;;;;;;;;;;;;5095840;28;19924;-76
2022/07/22 01:43:20;;;;;;;;;;;;;;;;;;5123845;22;19932;-79
2022/07/22 01:45:47;;;;;;;;;;;;;;;;;;5123543;28;19924;-79
2022/07/22 01:48:14;;;;;;;;;;;;;;;;;;5117432;28;20007;-79
2022/07/22 01:50:40;;;;;;;;;;;;;;;;;;5117691;28;19934;-76
2022/07/22 01:53:07;;;;;;;;;;;;;;;;;;5116757;28;20015;-77
2022/07/22 01:55:35;;;;;;;;;;;;;;;;;;5116215;28;20038;-76
2022/07/22 01:58:03;;;;;;;;;;;;;;;;;;5115796;28;19974;-78
2022/07/22 02:00:29;;;;;;;;;;;;;;;;;;5116619;28;19924;-78
2022/07/22 02:02:56;;;;;;;;;;;;;;;;;;5116327;28;20014;-78
2022/07/22 02:05:22;;;;;;;;;;;;;;;;;;5116461;28;19974;-78
2022/07/22 02:07:49;;;;;;;;;;;;;;;;;;5117380;28;19939;-79
2022/07/22 02:10:15;;;;;;;;;;;;;;;;;;5118238;28;19985;-79
2022/07/22 02:12:43;;;;;;;;;;;;;;;;;;5117769;28;20019;-77
2022/07/22 02:15:10;;;;;;;;;;;;;;;;;;5119223;28;19982;-78
2022/07/22 02:17:37;;;;;;;;;;;;;;;;;;5116657;28;19930;-78
2022/07/22 02:20:04;;;;;;;;;;;;;;;;;;5115237;28;20498;-78
2022/07/22 02:22:30;;;;;;;;;;;;;;;;;;5115515;28;19924;-78
2022/07/22 02:24:57;;;;;;;;;;;;;;;;;;5115930;28;19977;-77
2022/07/22 02:27:23;;;;;;;;;;;;;;;;;;5115374;28;19963;-78
2022/07/22 02:29:51;;;;;;;;;;;;;;;;;;5115646;28;20007;-78
2022/07/22 02:32:17;;;;;;;;;;;;;;;;;;5115546;28;19930;-79
2022/07/22 02:34:44;;;;;;;;;;;;;;;;;;5114190;28;19923;-78
2022/07/22 02:37:10;;;;;;;;;;;;;;;;;;5115281;28;20362;-78
2022/07/22 02:39:37;;;;;;;;;;;;;;;;;;5115128;28;19982;-79
2022/07/22 02:42:04;;;;;;;;;;;;;;;;;;5115550;28;20044;-78
2022/07/22 02:44:30;;;;;;;;;;;;;;;;;;5115010;28;20382;-78
2022/07/22 02:46:58;;;;;;;;;;;;;;;;;;5115124;28;19924;-78
2022/07/22 02:49:24;;;;;;;;;;;;;;;;;;5115138;28;19924;-79
2022/07/22 02:51:51;;;;;;;;;;;;;;;;;;5115185;28;20010;-79
2022/07/22 02:54:17;;;;;;;;;;;;;;;;;;5114723;28;20487;-78
2022/07/22 02:56:44;;;;;;;;;;;;;;;;;;5114631;28;20366;-78
2022/07/22 02:59:10;;;;;;;;;;;;;;;;;;5114583;28;19967;-79
2022/07/22 03:01:37;;;;;;;;;;;;;;;;;;5114848;28;20014;-78
2022/07/22 03:04:05;;;;;;;;;;;;;;;;;;5114475;28;20007;-79
2022/07/22 03:06:31;;;;;;;;;;;;;;;;;;5114355;28;20458;-79
2022/07/22 03:08:57;;;;;;;;;;;;;;;;;;5115274;28;19975;-79
2022/07/22 03:11:24;;;;;;;;;;;;;;;;;;5115597;28;20014;-79
2022/07/22 03:13:50;;;;;;;;;;;;;;;;;;5117903;28;20019;-79
2022/07/22 03:16:17;;;;;;;;;;;;;;;;;;5114977;28;19923;-79
2022/07/22 03:18:43;;;;;;;;;;;;;;;;;;5114993;28;19929;-80
2022/07/22 03:21:11;;;;;;;;;;;;;;;;;;5115046;28;19923;-79
2022/07/22 03:23:37;;;;;;;;;;;;;;;;;;5114703;28;20011;-80
2022/07/22 03:26:04;;;;;;;;;;;;;;;;;;5115212;28;20014;-79
2022/07/22 03:28:30;;;;;;;;;;;;;;;;;;5114660;28;19930;-78
2022/07/22 03:30:57;;;;;;;;;;;;;;;;;;5115187;28;19979;-77
2022/07/22 03:33:23;;;;;;;;;;;;;;;;;;5115252;28;20010;-78
2022/07/22 03:35:50;;;;;;;;;;;;;;;;;;5117761;28;20002;-78
2022/07/22 03:38:17;;;;;;;;;;;;;;;;;;5119307;28;19924;-78
2022/07/22 03:40:44;;;;;;;;;;;;;;;;;;5120109;28;19975;-76
2022/07/22 03:43:10;;;;;;;;;;;;;;;;;;5122713;28;20026;-79
2022/07/22 03:45:37;;;;;;;;;;;;;;;;;;5124850;28;19923;-78
2022/07/22 03:48:04;;;;;;;;;;;;;;;;;;5124784;28;19935;-78
2022/07/22 03:50:30;;;;;;;;;;;;;;;;;;5118284;28;20364;-78
2022/07/22 03:52:56;;;;;;;;;;;;;;;;;;5116565;28;20007;-78
2022/07/22 03:55:24;;;;;;;;;;;;;;;;;;5124622;28;19984;-79
2022/07/22 03:57:51;;;;;;;;;;;;;;;;;;5115541;28;19970;-78
2022/07/22 04:00:17;;;;;;;;;;;;;;;;;;5110080;28;20018;-78
2022/07/22 04:02:44;;;;;;;;;;;;;;;;;;5101872;28;20422;-78
2022/07/22 04:05:10;;;;;;;;;;;;;;;;;;5101880;28;19931;-77
2022/07/22 04:07:37;;;;;;;;;;;;;;;;;;5102857;28;19964;-78
2022/07/22 04:10:06;;;;;;;;;;;;;;;;;;5103758;28;19924;-78
2022/07/22 04:12:35;;;;;;;;;;;;;;;;;;5100472;28;20035;-78
2022/07/22 04:15:02;;;;;;;;;;;;;;;;;;5101713;28;19924;-78
2022/07/22 04:17:28;;;;;;;;;;;;;;;;;;5102150;28;19924;-78
2022/07/22 04:19:55;;;;;;;;;;;;;;;;;;5100551;28;19954;-78
2022/07/22 04:22:22;;;;;;;;;;;;;;;;;;5099925;28;19971;-78
2022/07/22 04:24:48;;;;;;;;;;;;;;;;;;5098748;28;19924;-79
2022/07/22 04:27:15;;;;;;;;;;;;;;;;;;5099317;28;19960;-78
2022/07/22 04:29:43;;;;;;;;;;;;;;;;;;5099043;28;20018;-77
2022/07/22 04:32:09;;;;;;;;;;;;;;;;;;5095528;28;20010;-79
2022/07/22 04:34:35;;;;;;;;;;;;;;;;;;5093807;28;19924;-78
2022/07/22 04:37:02;;;;;;;;;;;;;;;;;;5094380;28;19924;-79
2022/07/22 04:39:28;;;;;;;;;;;;;;;;;;5093856;28;19924;-79
2022/07/22 04:41:55;;;;;;;;;;;;;;;;;;5092750;28;20309;-78
2022/07/22 04:44:21;;;;;;;;;;;;;;;;;;5092587;28;20015;-79
2022/07/22 04:46:49;;;;;;;;;;;;;;;;;;5092526;28;19925;-79
2022/07/22 04:49:15;;;;;;;;;;;;;;;;;;5092728;28;19931;-80
2022/07/22 04:51:42;;;;;;;;;;;;;;;;;;5092298;28;19924;-79
2022/07/22 04:54:08;;;;;;;;;;;;;;;;;;5093048;28;20014;-78
2022/07/22 04:56:35;;;;;;;;;;;;;;;;;;5095540;28;20552;-78
2022/07/22 04:59:01;;;;;;;;;;;;;;;;;;5097321;28;20014;-79
2022/07/22 05:01:28;;;;;;;;;;;;;;;;;;5115021;28;20018;-79
2022/07/22 05:03:55;;;;;;;;;;;;;;;;;;5123858;28;19983;-79
2022/07/22 05:06:22;;;;;;;;;;;;;;;;;;5137582;28;19970;-79
2022/07/22 05:08:48;;;;;;;;;;;;;;;;;;5135139;28;20019;-79
2022/07/22 05:11:15;;;;;;;;;;;;;;;;;;5133646;28;20285;-79
2022/07/22 05:13:41;;;;;;;;;;;;;;;;;;5132999;28;19923;-78
2022/07/22 05:16:08;;;;;;;;;;;;;;;;;;5130897;28;19984;-78
2022/07/22 05:18:35;;;;;;;;;;;;;;;;;;5131843;28;19987;-78
2022/07/22 05:21:03;;;;;;;;;;;;;;;;;;5130263;28;19931;-78
2022/07/22 05:23:29;;;;;;;;;;;;;;;;;;5125118;28;20390;-78
2022/07/22 05:25:56;;;;;;;;;;;;;;;;;;5118480;28;19930;-78
2022/07/22 05:28:22;;;;;;;;;;;;;;;;;;5118340;28;20011;-78
2022/07/22 05:30:49;;;;;;;;;;;;;;;;;;5119186;28;20464;-78
2022/07/22 05:33:15;;;;;;;;;;;;;;;;;;5121131;28;19967;-78
2022/07/22 05:35:42;;;;;;;;;;;;;;;;;;5121840;28;19927;-78
2022/07/22 05:38:09;;;;;;;;;;;;;;;;;;5121116;28;20014;-78
2022/07/22 05:40:36;;;;;;;;;;;;;;;;;;5120579;28;19970;-79
2022/07/22 05:43:02;;;;;;;;;;;;;;;;;;5120723;28;20348;-79
2022/07/22 05:45:29;;;;;;;;;;;;;;;;;;5120310;28;19924;-79
2022/07/22 05:47:55;;;;;;;;;;;;;;;;;;5120742;28;19992;-79
2022/07/22 05:50:22;;;;;;;;;;;;;;;;;;5120290;28;19923;-80
2022/07/22 05:52:48;;;;;;;;;;;;;;;;;;5121489;28;19923;-78
2022/07/22 05:55:16;;;;;;;;;;;;;;;;;;5120675;28;19987;-79
2022/07/22 05:57:43;;;;;;;;;;;;;;;;;;5119969;28;19923;-80
2022/07/22 06:00:10;;;;;;;;;;;;;;;;;;5113059;28;20528;-79
2022/07/22 06:02:36;;;;;;;;;;;;;;;;;;5099502;28;19924;-79
2022/07/22 06:05:03;;;;;;;;;;;;;;;;;;5100408;28;20022;-80
2022/07/22 06:07:29;;;;;;;;;;;;;;;;;;5097786;28;20341;-78
2022/07/22 06:09:56;;;;;;;;;;;;;;;;;;5098706;28;19935;-80
2022/07/22 06:12:23;;;;;;;;;;;;;;;;;;5103421;28;19946;-78
2022/07/22 06:14:50;;;;;;;;;;;;;;;;;;5103799;28;19975;-78
2022/07/22 06:17:16;;;;;;;;;;;;;;;;;;5102616;28;19924;-78
2022/07/22 06:19:43;;;;;;;;;;;;;;;;;;5099715;28;19971;-77
2022/07/22 06:22:10;;;;;;;;;;;;;;;;;;5094771;28;20006;-77
2022/07/22 06:24:36;;;;;;;;;;;;;;;;;;5096055;28;20302;-79
2022/07/22 06:27:03;;;;;;;;;;;;;;;;;;5095212;28;20031;-78
2022/07/22 06:29:31;;;;;;;;;;;;;;;;;;5096518;28;19980;-78
2022/07/22 06:31:57;;;;;;;;;;;;;;;;;;5100321;28;20019;-80
2022/07/22 06:34:24;;;;;;;;;;;;;;;;;;5102918;28;19924;-80
2022/07/22 06:36:50;;;;;;;;;;;;;;;;;;5102411;28;19990;-80
2022/07/22 06:39:17;;;;;;;;;;;;;;;;;;5101508;28;20015;-75
2022/07/22 06:41:43;;;;;;;;;;;;;;;;;;5097700;28;19962;-77
2022/07/22 06:44:10;;;;;;;;;;;;;;;;;;5107904;28;20362;-77
2022/07/22 06:46:37;;;;;;;;;;;;;;;;;;5110757;28;19995;-77
2022/07/22 06:49:04;;;;;;;;;;;;;;;;;;5110721;28;19935;-77
2022/07/22 06:51:30;;;;;;;;;;;;;;;;;;5106841;28;19952;-78
2022/07/22 06:53:57;;;;;;;;;;;;;;;;;;5106824;28;19947;-78
2022/07/22 06:56:23;;;;;;;;;;;;;;;;;;5102727;28;19924;-77
2022/07/22 06:58:50;;;;;;;;;;;;;;;;;;5102765;28;19924;-80
2022/07/22 07:01:17;;;;;;;;;;;;;;;;;;5100468;28;19975;-77
2022/07/22 07:03:45;;;;;;;;;;;;;;;;;;5122890;28;20014;-77
2022/07/22 07:06:12;;;;;;;;;;;;;;;;;;5122604;28;19930;-77
2022/07/22 07:08:39;;;;;;;;;;;;;;;;;;5120146;28;19987;-78
2022/07/22 07:11:05;;;;;;;;;;;;;;;;;;5118262;28;19959;-78
2022/07/22 07:13:32;;;;;;;;;;;;;;;;;;5123085;28;19987;-77
2022/07/22 07:15:58;;;;;;;;;;;;;;;;;;5122635;28;19982;-77
2022/07/22 07:18:25;;;;;;;;;;;;;;;;;;5125502;28;19930;-77
2022/07/22 07:20:53;;;;;;;;;;;;;;;;;;5127368;28;19950;-76
2022/07/22 07:23:19;;;;;;;;;;;;;;;;;;5124375;28;19954;-77
2022/07/22 07:25:46;;;;;;;;;;;;;;;;;;5126006;28;19928;-76
2022/07/22 07:28:12;;;;;;;;;;;;;;;;;;5119490;28;19951;-77
2022/07/22 07:30:39;;;;;;;;;;;;;;;;;;5126692;28;19924;-77
2022/07/22 07:33:05;;;;;;;;;;;;;;;;;;5119793;28;20338;-79
2022/07/22 07:35:32;;;;;;;;;;;;;;;;;;5118695;28;19924;-79
2022/07/22 07:38:00;;;;;;;;;;;;;;;;;;5118912;28;20010;-76
2022/07/22 07:40:26;;;;;;;;;;;;;;;;;;5118212;28;20012;-80
2022/07/22 07:42:53;;;;;;;;;;;;;;;;;;5120292;28;20027;-78
2022/07/22 07:45:19;;;;;;;;;;;;;;;;;;5128978;22;20300;-77
2022/07/22 07:47:46;;;;;;;;;;;;;;;;;;5114272;28;19924;-77
2022/07/22 07:50:12;;;;;;;;;;;;;;;;;;5113926;28;20289;-77
2022/07/22 07:52:39;;;;;;;;;;;;;;;;;;5114864;28;19923;-77
2022/07/22 07:55:07;;;;;;;;;;;;;;;;;;5114557;28;19928;-77
2022/07/22 07:57:34;;;;;;;;;;;;;;;;;;5114062;28;20279;-77
2022/07/22 08:00:01;;;;;;;;;;;;;;;;;;5108363;28;19930;-77
2022/07/22 08:02:27;;;;;;;;;;;;;;;;;;5091914;28;19924;-77
2022/07/22 08:04:53;;;;;;;;;;;;;;;;;;5091327;28;19930;-77
2022/07/22 08:07:20;;;;;;;;;;;;;;;;;;5092350;28;19931;-77
2022/07/22 08:09:47;;;;;;;;;;;;;;;;;;5091715;28;20019;-77
2022/07/22 08:12:14;;;;;;;;;;;;;;;;;;5092031;28;19924;-77
2022/07/22 08:14:41;;;;;;;;;;;;;;;;;;5090970;28;20027;-77
2022/07/22 08:17:07;;;;;;;;;;;;;;;;;;5091557;28;19924;-77
2022/07/22 08:19:34;;;;;;;;;;;;;;;;;;5094939;28;20015;-77
2022/07/22 08:22:00;;;;;;;;;;;;;;;;;;5094363;28;19970;-78
2022/07/22 08:24:27;;;;;;;;;;;;;;;;;;5091510;28;19971;-77
2022/07/22 08:26:53;;;;;;;;;;;;;;;;;;5075686;28;19924;-77
2022/07/22 08:29:21;;;;;;;;;;;;;;;;;;5072996;28;20286;-77
2022/07/22 08:31:48;;;;;;;;;;;;;;;;;;5072297;28;19963;-78
2022/07/22 08:34:14;;;;;;;;;;;;;;;;;;5072237;28;19935;-77
2022/07/22 08:36:41;;;;;;;;;;;;;;;;;;5072290;28;20023;-77
2022/07/22 08:39:07;;;;;;;;;;;;;;;;;;5088744;28;19992;-77
2022/07/22 08:41:35;;;;;;;;;;;;;;;;;;5092407;28;20023;-77
2022/07/22 08:44:01;;;;;;;;;;;;;;;;;;5092595;28;20061;-77
2022/07/22 08:46:29;;;;;;;;;;;;;;;;;;5091713;28;19931;-77
2022/07/22 08:48:55;;;;;;;;;;;;;;;;;;5092443;28;20023;-77
2022/07/22 08:51:22;;;;;;;;;;;;;;;;;;5094595;28;20306;-77
2022/07/22 08:53:48;;;;;;;;;;;;;;;;;;5092495;28;19924;-77
2022/07/22 08:56:15;;;;;;;;;;;;;;;;;;5092161;28;20015;-77
2022/07/22 08:58:41;;;;;;;;;;;;;;;;;;5092300;28;20015;-77
2022/07/22 09:01:09;;;;;;;;;;;;;;;;;;5092683;28;19931;-77
2022/07/22 09:03:44;;;;;;;;;;;;;;;;;;5092196;28;20363;-77
2022/07/22 09:06:11;;;;;;;;;;;;;;;;;;5091920;28;20015;-77
2022/07/22 09:08:50;;;;;;;;;;;;;;;;;;5092440;28;20030;-77
2022/07/22 09:11:17;;;;;;;;;;;;;;;;;;5091981;28;19963;-77
2022/07/22 09:13:43;;;;;;;;;;;;;;;;;;5091920;28;20014;-77
2022/07/22 09:16:10;;;;;;;;;;;;;;;;;;5091883;28;20010;-77
2022/07/22 09:18:47;;;;;;;;;;;;;;;;;;5091972;28;19924;-77
2022/07/22 09:21:14;;;;;;;;;;;;;;;;;;5094474;28;20104;-77
2022/07/22 09:23:41;;;;;;;;;;;;;;;;;;5092591;28;20558;-77
2022/07/22 09:26:08;;;;;;;;;;;;;;;;;;5091636;28;19924;-77
2022/07/22 09:28:34;;;;;;;;;;;;;;;;;;5096211;28;19942;-77
2022/07/22 09:31:01;;;;;;;;;;;;;;;;;;5097854;28;19935;-78
2022/07/22 09:33:27;;;;;;;;;;;;;;;;;;5095044;28;19974;-78
2022/07/22 09:36:02;;;;;;;;;;;;;;;;;;5093139;28;20010;-78
2022/07/22 09:38:29;;;;;;;;;;;;;;;;;;5094206;28;20006;-78
2022/07/22 09:40:56;;;;;;;;;;;;;;;;;;5093180;28;19928;-78
2022/07/22 09:43:22;;;;;;;;;;;;;;;;;;5093194;28;20014;-78
2022/07/22 09:45:49;;;;;;;;;;;;;;;;;;5096451;28;19935;-78
2022/07/22 09:48:17;;;;;;;;;;;;;;;;;;5097224;28;19924;-78
2022/07/22 09:50:45;;;;;;;;;;;;;;;;;;5096756;28;19928;-78
2022/07/22 09:53:13;;;;;;;;;;;;;;;;;;5095639;28;19963;-78
2022/07/22 09:55:39;;;;;;;;;;;;;;;;;;5097100;28;19956;-77
2022/07/22 09:58:07;;;;;;;;;;;;;;;;;;5097413;28;20018;-77
2022/07/22 10:00:34;;;;;;;;;;;;;;;;;;5096697;28;20416;-77
2022/07/22 10:03:02;;;;;;;;;;;;;;;;;;5105566;28;20322;-81
2022/07/22 10:05:30;;;;;;;;;;;;;;;;;;5112528;28;19924;-83
2022/07/22 10:07:56;;;;;;;;;;;;;;;;;;5117834;27;19912;-79
2022/07/22 10:10:26;;;;;;;;;;;;;;;;;;5113051;28;19919;-81
2022/07/22 10:12:54;;;;;;;;;;;;;;;;;;5112969;28;19933;-77
2022/07/22 10:15:21;;;;;;;;;;;;;;;;;;5111694;28;19992;-76
2022/07/22 10:17:48;;;;;;;;;;;;;;;;;;5102172;28;19957;-76
2022/07/22 10:20:17;;;;;;;;;;;;;;;;;;5094114;28;19935;-76
2022/07/22 10:22:56;;;;;;;;;;;;;;;;;;5094616;28;20031;-76
2022/07/22 10:25:25;;;;;;;;;;;;;;;;;;5094342;28;19956;-75
2022/07/22 10:27:53;;;;;;;;;;;;;;;;;;5093674;28;19923;-76
2022/07/22 10:30:20;;;;;;;;;;;;;;;;;;5094273;28;20023;-76
2022/07/22 10:33:01;;;;;;;;;;;;;;;;;;5094878;28;20019;-76
2022/07/22 10:35:28;;;;;;;;;;;;;;;;;;5093596;28;19993;-76
2022/07/22 10:37:58;;;;;;;;;;;;;;;;;;5093385;28;20005;-79
2022/07/22 10:40:28;;;;;;;;;;;;;;;;;;5093087;28;20372;-76
2022/07/22 10:43:09;;;;;;;;;;;;;;;;;;5092495;28;20374;-76
2022/07/22 10:45:36;;;;;;;;;;;;;;;;;;5092698;28;19928;-77
2022/07/22 10:48:05;;;;;;;;;;;;;;;;;;5094681;28;20030;-78
2022/07/22 10:50:51;;;;;;;;;;;;;;;;;;5097044;28;19973;-81
2022/07/22 10:53:18;;;;;;;;;;;;;;;;;;5097177;28;20003;-77
2022/07/22 10:56:06;;;;;;;;;;;;;;;;;;5092077;28;20006;-77
2022/07/22 10:58:41;;;;;;;;;;;;;;;;;;5093224;28;19924;-77
2022/07/22 11:01:09;;;;;;;;;;;;;;;;;;5096088;28;20007;-77
2022/07/22 11:03:37;;;;;;;;;;;;;;;;;;5096466;28;19924;-77
2022/07/22 11:06:13;;;;;;;;;;;;;;;;;;5095919;28;19923;-78
2022/07/22 11:08:40;;;;;;;;;;;;;;;;;;5093123;28;19963;-78
2022/07/22 11:11:08;;;;;;;;;;;;;;;;;;5093324;28;19924;-77
2022/07/22 11:13:35;;;;;;;;;;;;;;;;;;5092892;28;20011;-77
2022/07/22 11:16:15;;;;;;;;;;;;;;;;;;5093462;28;20331;-78
2022/07/22 11:18:48;;;;;;;;;;;;;;;;;;5093897;28;19928;-78
2022/07/22 11:21:16;;;;;;;;;;;;;;;;;;5092475;28;19924;-78
2022/07/22 11:23:43;;;;;;;;;;;;;;;;;;5092333;28;19947;-77
2022/07/22 11:26:13;;;;;;;;;;;;;;;;;;5093107;28;20312;-78
2022/07/22 11:28:40;;;;;;;;;;;;;;;;;;5094371;28;20015;-78
2022/07/22 11:31:07;;;;;;;;;;;;;;;;;;5094052;28;20011;-78
2022/07/22 11:33:33;;;;;;;;;;;;;;;;;;5094747;28;19931;-78
2022/07/22 11:36:04;;;;;;;;;;;;;;;;;;5094018;28;19930;-78
2022/07/22 11:38:40;;;;;;;;;;;;;;;;;;5093853;28;19924;-78
2022/07/22 11:41:06;;;;;;;;;;;;;;;;;;5093047;28;19928;-78
2022/07/22 11:43:39;;;;;;;;;;;;;;;;;;5094075;28;20426;-78
2022/07/22 11:46:06;;;;;;;;;;;;;;;;;;5093521;28;19975;-78
2022/07/22 11:48:32;;;;;;;;;;;;;;;;;;5094353;28;19932;-78
2022/07/22 11:51:02;;;;;;;;;;;;;;;;;;5093823;28;19924;-78
2022/07/22 11:53:29;;;;;;;;;;;;;;;;;;5093660;28;20023;-78
2022/07/22 11:55:57;;;;;;;;;;;;;;;;;;5091542;28;19924;-77
2022/07/22 11:58:34;;;;;;;;;;;;;;;;;;5091611;28;19928;-77
2022/07/22 12:01:02;;;;;;;;;;;;;;;;;;5091853;28;19924;-77
2022/07/22 12:03:29;;;;;;;;;;;;;;;;;;5091895;28;19924;-78
2022/07/22 12:05:56;;;;;;;;;;;;;;;;;;5093274;28;19924;-78
2022/07/22 12:08:22;;;;;;;;;;;;;;;;;;5092276;28;20011;-78
2022/07/22 12:10:49;;;;;;;;;;;;;;;;;;5093400;28;19924;-78
2022/07/22 12:13:16;;;;;;;;;;;;;;;;;;5093647;28;20315;-78
2022/07/22 12:15:42;;;;;;;;;;;;;;;;;;5093217;28;19931;-78
2022/07/22 12:18:16;;;;;;;;;;;;;;;;;;5093114;28;19924;-78
2022/07/22 12:20:44;;;;;;;;;;;;;;;;;;5093332;28;19924;-78
2022/07/22 12:23:10;;;;;;;;;;;;;;;;;;5093512;28;19971;-78
2022/07/22 12:25:49;;;;;;;;;;;;;;;;;;5096567;28;20037;-78
2022/07/22 12:28:16;;;;;;;;;;;;;;;;;;5094876;28;20517;-78
2022/07/22 12:30:43;;;;;;;;;;;;;;;;;;5094559;28;20011;-78
2022/07/22 12:33:13;;;;;;;;;;;;;;;;;;5094291;28;19924;-78
2022/07/22 12:35:41;;;;;;;;;;;;;;;;;;5092877;28;19931;-78
2022/07/22 12:38:08;;;;;;;;;;;;;;;;;;5093014;28;19963;-78
2022/07/22 12:40:35;;;;;;;;;;;;;;;;;;5092744;28;19931;-78
2022/07/22 12:43:02;;;;;;;;;;;;;;;;;;5092678;28;20011;-78
2022/07/22 12:45:29;;;;;;;;;;;;;;;;;;5092676;28;20543;-78
2022/07/22 12:47:58;;;;;;;;;;;;;;;;;;5093000;28;20383;-78
2022/07/22 12:50:26;;;;;;;;;;;;;;;;;;5094193;28;19924;-78
2022/07/22 12:52:55;;;;;;;;;;;;;;;;;;5094063;28;20010;-77
2022/07/22 12:55:22;;;;;;;;;;;;;;;;;;5092975;28;19928;-78
2022/07/22 12:57:48;;;;;;;;;;;;;;;;;;5093220;28;19981;-78
2022/07/22 13:00:18;;;;;;;;;;;;;;;;;;5093799;28;19931;-78
2022/07/22 13:02:44;;;;;;;;;;;;;;;;;;5094286;28;19946;-78
2022/07/22 13:05:11;;;;;;;;;;;;;;;;;;5093911;28;20015;-78
2022/07/22 13:07:37;;;;;;;;;;;;;;;;;;5094151;28;20398;-78
2022/07/22 13:10:06;;;;;;;;;;;;;;;;;;5094035;28;20446;-78
2022/07/22 13:12:33;;;;;;;;;;;;;;;;;;5094752;28;19967;-78
2022/07/22 13:14:59;;;;;;;;;;;;;;;;;;5093545;28;20441;-78
2022/07/22 13:17:26;;;;;;;;;;;;;;;;;;5094004;28;19931;-78
2022/07/22 13:19:52;;;;;;;;;;;;;;;;;;5096476;28;19962;-78
2022/07/22 13:22:18;;;;;;;;;;;;;;;;;;5098192;28;19944;-78
2022/07/22 13:24:45;;;;;;;;;;;;;;;;;;5098150;28;19924;-78
2022/07/22 13:27:13;;;;;;;;;;;;;;;;;;5097533;28;19967;-78
2022/07/22 13:29:39;;;;;;;;;;;;;;;;;;5097302;28;20453;-78
2022/07/22 13:32:06;;;;;;;;;;;;;;;;;;5099703;28;19951;-78
2022/07/22 13:34:33;;;;;;;;;;;;;;;;;;5103728;28;19950;-78
2022/07/22 13:37:00;;;;;;;;;;;;;;;;;;5103416;28;19963;-78
2022/07/22 13:39:27;;;;;;;;;;;;;;;;;;5104049;28;20128;-78
2022/07/22 13:41:53;;;;;;;;;;;;;;;;;;5099440;28;19998;-78
2022/07/22 13:44:21;;;;;;;;;;;;;;;;;;5097355;28;20019;-78
2022/07/22 13:46:48;;;;;;;;;;;;;;;;;;5096761;28;20015;-78
2022/07/22 13:49:15;;;;;;;;;;;;;;;;;;5095896;28;19924;-77
2022/07/22 13:51:42;;;;;;;;;;;;;;;;;;5094408;28;20030;-76
2022/07/22 13:54:08;;;;;;;;;;;;;;;;;;5094359;28;20014;-77
2022/07/22 13:56:35;;;;;;;;;;;;;;;;;;5093246;28;20052;-77
2022/07/22 13:59:03;;;;;;;;;;;;;;;;;;5094688;28;19971;-78
2022/07/22 14:01:31;;;;;;;;;;;;;;;;;;5094002;28;20014;-77
2022/07/22 14:04:00;;;;;;;;;;;;;;;;;;5093925;28;19981;-77
2022/07/22 14:06:26;;;;;;;;;;;;;;;;;;5093317;28;20010;-77
2022/07/22 14:08:53;;;;;;;;;;;;;;;;;;5093455;28;19936;-77
2022/07/22 14:11:19;;;;;;;;;;;;;;;;;;5093247;28;19974;-78
2022/07/22 14:13:46;;;;;;;;;;;;;;;;;;5092907;28;19968;-78
2022/07/22 14:18:57;;;;;;;;;;;;;;;;;;5092969;28;20413;-78
2022/07/22 14:21:24;;;;;;;;;;;;;;;;;;5091953;28;20015;-79
2022/07/22 14:23:50;;;;;;;;;;;;;;;;;;5092508;28;19924;-78
2022/07/22 14:26:17;;;;;;;;;;;;;;;;;;5095648;28;19924;-78
2022/07/22 14:28:43;;;;;;;;;;;;;;;;;;5093091;28;19978;-77
2022/07/22 14:31:10;;;;;;;;;;;;;;;;;;5092780;28;20007;-78
2022/07/22 14:33:36;;;;;;;;;;;;;;;;;;5090993;28;19931;-77
2022/07/22 14:36:04;;;;;;;;;;;;;;;;;;5092694;28;20448;-78
2022/07/22 14:38:31;;;;;;;;;;;;;;;;;;5093582;28;19924;-78
2022/07/22 14:40:57;;;;;;;;;;;;;;;;;;5093019;28;20395;-78
2022/07/22 14:43:23;;;;;;;;;;;;;;;;;;5092554;28;20460;-77
2022/07/22 14:45:50;;;;;;;;;;;;;;;;;;5092675;28;19931;-79
2022/07/22 14:48:16;;;;;;;;;;;;;;;;;;5092089;28;19977;-77
2022/07/22 14:50:43;;;;;;;;;;;;;;;;;;5092420;28;19924;-77
2022/07/22 14:53:11;;;;;;;;;;;;;;;;;;5091416;28;19924;-77
2022/07/22 14:55:37;;;;;;;;;;;;;;;;;;5092407;28;20007;-80
2022/07/22 14:58:03;;;;;;;;;;;;;;;;;;5092767;28;19930;-78
2022/07/22 15:00:30;;;;;;;;;;;;;;;;;;5091967;28;20015;-76
2022/07/22 15:02:56;;;;;;;;;;;;;;;;;;5088255;28;19928;-76
2022/07/22 15:05:23;;;;;;;;;;;;;;;;;;5091806;28;19928;-78
2022/07/22 15:07:50;;;;;;;;;;;;;;;;;;5091841;28;19924;-78
2022/07/22 15:10:18;;;;;;;;;;;;;;;;;;5092026;28;20363;-78
2022/07/22 15:12:44;;;;;;;;;;;;;;;;;;5092175;28;19959;-78
2022/07/22 15:15:11;;;;;;;;;;;;;;;;;;5080354;28;19924;-78
2022/07/22 15:17:38;;;;;;;;;;;;;;;;;;5071676;28;20548;-77
2022/07/22 15:20:06;;;;;;;;;;;;;;;;;;5071718;28;19925;-77
2022/07/22 15:22:32;;;;;;;;;;;;;;;;;;5071699;28;19924;-77
2022/07/22 15:24:59;;;;;;;;;;;;;;;;;;5071883;28;19928;-77
2022/07/22 15:27:27;;;;;;;;;;;;;;;;;;5071990;28;19925;-77
2022/07/22 15:29:53;;;;;;;;;;;;;;;;;;5071904;28;19988;-77
2022/07/22 15:32:20;;;;;;;;;;;;;;;;;;5071533;28;20007;-76
2022/07/22 15:34:46;;;;;;;;;;;;;;;;;;5071445;28;19924;-77
2022/07/22 15:37:12;;;;;;;;;;;;;;;;;;5083376;28;19931;-77
2022/07/22 15:39:39;;;;;;;;;;;;;;;;;;5090610;28;20018;-77
2022/07/22 15:42:06;;;;;;;;;;;;;;;;;;5090902;28;19924;-77
2022/07/22 15:44:34;;;;;;;;;;;;;;;;;;5091517;28;20024;-77
2022/07/22 15:47:00;;;;;;;;;;;;;;;;;;5091063;28;19924;-78
2022/07/22 15:49:26;;;;;;;;;;;;;;;;;;5091201;28;19930;-78
2022/07/22 15:51:53;;;;;;;;;;;;;;;;;;5091262;28;19934;-77
2022/07/22 15:54:20;;;;;;;;;;;;;;;;;;5091563;28;19928;-76
2022/07/22 15:56:48;;;;;;;;;;;;;;;;;;5091450;28;19924;-77
2022/07/22 15:59:32;;;;;;;;;;;;;;;;;;5091390;28;19924;-77
2022/07/22 16:02:00;;;;;;;;;;;;;;;;;;5070748;28;19972;-77
2022/07/22 16:04:26;;;;;;;;;;;;;;;;;;5071095;28;19979;-77
2022/07/22 16:06:53;;;;;;;;;;;;;;;;;;5084816;28;20010;-78
2022/07/22 16:09:20;;;;;;;;;;;;;;;;;;5091090;28;19924;-77
2022/07/22 16:11:46;;;;;;;;;;;;;;;;;;5090853;28;20455;-78
2022/07/22 16:14:13;;;;;;;;;;;;;;;;;;5091012;28;20018;-78
2022/07/22 16:16:39;;;;;;;;;;;;;;;;;;5090806;28;19928;-77
2022/07/22 16:19:07;;;;;;;;;;;;;;;;;;5092501;28;19963;-78
2022/07/22 16:21:33;;;;;;;;;;;;;;;;;;5092092;28;19956;-78
2022/07/22 16:24:00;;;;;;;;;;;;;;;;;;5091204;28;20435;-78
2022/07/22 16:26:27;;;;;;;;;;;;;;;;;;5091425;28;20019;-78
2022/07/22 16:28:53;;;;;;;;;;;;;;;;;;5091544;28;20023;-78
2022/07/22 16:31:22;;;;;;;;;;;;;;;;;;5090966;28;19964;-78
2022/07/22 16:33:49;;;;;;;;;;;;;;;;;;5091027;28;19939;-78
2022/07/22 16:36:17;;;;;;;;;;;;;;;;;;5090587;28;20011;-77
2022/07/22 16:38:43;;;;;;;;;;;;;;;;;;5089185;28;20466;-78
2022/07/22 16:41:10;;;;;;;;;;;;;;;;;;5091259;28;20019;-78
2022/07/22 16:43:36;;;;;;;;;;;;;;;;;;5091923;28;19970;-77
2022/07/22 16:46:02;;;;;;;;;;;;;;;;;;5090112;28;20014;-77
2022/07/22 16:48:29;;;;;;;;;;;;;;;;;;5091259;28;19931;-77